NWS Home NWS Lubbock West Texas Mesonet Latest Conditions as of 0754 AM, Thu Oct 30, 2014

Latest   N   C   S   Daily Sum   3hrΔ   24hrΔ   Soil Data 
Site Map   24hr Precip   72hr Precip   Google Plot


Station Time of Last Temp Dew Pt. RH Wind Direction Wind Speed Wind Gust Max Wind Max Temp Min Temp Max RH Min RH Altimeter 1HR Rain Today's Rain Solar Rad
Abernathy 5ENE  07:50 AM 44 42 97% W56 10 mph 184° @ 0345 AM 47 44 97 88 30.13" 0 0.00 0
Aiken 3WSW  07:52 AM 43 41 96% SW33 14 mph 168° @ 1255 AM 52 42 96 69 30.13" 0 0.00 1
Amarillo 15NNW   07:50 AM 43 41 95% N34 19 mph 161° @ 1217 AM 56 41 95 63 30.16" 0 0.00 0
Amarillo 7SSE  07:50 AM 41 40 96% NW78 13 mph 196° @ 0257 AM 50 40 98 75 30.16" 0 0.00 0
Amarillo 9NNE  07:50 AM 40 39 98% N33 23 mph 179° @ 0210 AM 56 37 99 63 30.16" 0 0.00 0
Amherst 1NE  07:50 AM 42 41 98% W78 10 mph 201° @ 0230 AM 51 42 99 82 30.14" 0 0.00 0
Andrews 2E  07:45 AM 50 47 93% NW35 9 mph 183° @ 0150 AM 59 49 93 72 30.13" 0 0.00 0
Anton 6SSW  07:50 AM 42 41 97% W78 10 mph 220° @ 0405 AM 48 42 98 87 30.13" 0 0.00 0
Aspermont 3NE  07:50 AM 49 46 92% SE66 8 mph 159° @ 0230 AM 54 47 93 70 30.10" 0 0.00 1
Big Bend NP - Persimmon Gap  07:51 AM 60 57 91% NE01 19 mph 12° @ 1228 AM 69 59 94 73 30.15" 0 0.00 0
Big Lake 1WNW  07:50 AM 56 56 98% S89 11 mph 172° @ 0643 AM 63 56 98 79 30.14" 0 0.00 1
Bootleg 11WNW  07:50 AM 47 33 58% NW1214 24 mph 338° @ 0707 AM 49 44 91 56 30.21" 0 0.00 0
Brownfield 2S  07:50 AM 48 46 93% SW910 10 mph 251° @ 0705 AM 51 47 95 80 30.12" 0 0.00 0
Canadian 6E  07:50 AM 45 39 79% NW78 12 mph 196° @ 0313 AM 56 43 82 42 30.13" 0 0.00 1
Caprock Canyons State Park  07:50 AM 50 46 86% N00 15 mph 214° @ 0153 AM 59 49 89 53 30.12" 0 0.00 1
Childress 2NNE  07:50 AM 50 41 72% N55 15 mph 159° @ 0110 AM 57 51 73 51 30.11" 0 0.00 1
Clarendon 2WSW  07:50 AM 44 38 80% NW35 14 mph 196° @ 0320 AM 54 44 82 54 30.13" 0 0.00 1
Claude 12SW  07:50 AM 45 43 93% N77 17 mph 177° @ 1212 AM 57 43 96 55 30.14" 0 0.00 0
Coyanosa 2N  07:50 AM 52 49 89% SW67 10 mph 158° @ 1221 AM 63 52 90 74 30.13" 0 0.00 0
Denver City 7WNW  07:50 AM 51 48 91% SW78 14 mph 238° @ 0715 AM 52 48 96 84 30.13" 0 0.00 0
Dimmitt 2NE  07:50 AM 44 41 87% NW1316 20 mph 195° @ 0155 AM 52 44 94 78 30.13" 0 0.00 0
Dora NM 2SW  07:50 AM 49 38 66% W1619 20 mph 231° @ 0355 AM 56 48 91 68 30.17" 0 0.00 0
Dozier 3W  07:50 AM 48 41 78% N67 9 mph 0° @ 0652 AM 53 44 82 51 30.13" 0 0.00 1
Floydada 2NNE  07:50 AM 42 39 92% W56 12 mph 194° @ 0355 AM 53 42 92 65 30.12" 0 0.00 0
Fluvanna 3WNW  07:50 AM 52 49 94% SE23 9 mph 169° @ 0520 AM 57 51 93 69 30.11" 0 0.00 1
Friona 2NE  07:50 AM 45 38 77% NW1620 21 mph 327° @ 0735 AM 49 37 96 78 30.16" 0 0.00 0
Gail 2ESE  07:50 AM 52 49 93% S44 6 mph 181° @ 0545 AM 56 51 94 75 30.11" 0 0.00 1
Goodlett 3W  07:50 AM 48 40 75% N66 9 mph 158° @ 0100 AM 54 48 77 50 30.10" 0 0.00 1
Graham 5SSW  07:50 AM 54 51 90% SW78 13 mph 225° @ 0555 AM 61 53 90 55 30.12" 0 0.00 1
Guadalupe Mtns Natl Park  07:50 AM 63 33 32% NW1921 28 mph 304° @ 0605 AM 65 50 76 27 30.25" 0 0.00 0
Guthrie 10WSW  07:50 AM 49 44 83% S56 7 mph 169° @ 0335 AM 54 47 86 63 30.08" 0 0.00 1
Hart 3N  07:45 AM 42 41 98% W89 13 mph 186° @ 1210 AM 51 41 98 79 30.13" 0 0.00 0
Haskell 1NW  07:50 AM 57 48 73% SE812 13 mph 157° @ 0655 AM 59 53 73 59 30.09" 0 0.00 2
Hereford 2NW  07:50 AM 44 36 76% N1014 17 mph 322° @ 0715 AM 53 41 92 70 30.14" 0 0.00 0
Hobbs NM 5NW  07:50 AM 50 48 92% SW44 10 mph 217° @ 1210 AM 57 49 92 79 30.17" 0 0.00 0
Jayton 1SSE  07:50 AM 50 44 82% W33 8 mph 65° @ 0105 AM 58 48 87 61 30.10" 0 0.00 1
Junction 1SSW  07:50 AM 52 51 97% SW12 6 mph 18° @ 0258 AM 65 52 98 82 30.14" 0 0.00 3
Knox City 3NW  07:50 AM 48 42 82% N02 8 mph 31° @ 1250 AM 53 48 82 64 30.10" 0 0.00 1
Lake Alan Henry 1NW  07:50 AM 49 46 89% W33 6 mph 166° @ 0330 AM 58 48 94 61 30.10" 0 0.00 1
Lamesa 2SE  07:50 AM 47 46 96% W34 7 mph 223° @ 0635 AM 53 47 98 81 30.13" 0 0.00 0
Levelland 4S  07:50 AM 42 39 93% W67 11 mph 221° @ 0550 AM 49 42 93 80 30.13" 0 0.00 0
Lomax 1SSE  07:50 AM 53 53 98% SE66 10 mph 181° @ 0237 AM 63 52 98 74 30.12" 0 0.00 1
Lubbock 3WNW TTU  07:50 AM 46 43 92% NW46 13 mph 159° @ 0115 AM 57 46 92 63 30.13" 0 0.00 0
McLean 1E  07:50 AM 46 39 78% NW78 12 mph 177° @ 1245 AM 53 47 74 52 30.12" 0 0.00 1
Memphis 1NE  07:50 AM 45 41 87% N33 5 mph 322° @ 0320 AM 47 44 88 69 30.11" 0 0.00 1
Menard 2NW   07:50 AM 51 50 96% N11 8 mph 125° @ 1254 AM 63 51 98 80 30.14" 0 0.00 3
Mertzon 3NNE  07:51 AM 59 57 96% S45 10 mph 217° @ 1214 AM 64 52 97 78 30.13" 0 0.00 2
Morton 1ENE  07:50 AM 39 39 99% NW910 10 mph 239° @ 0550 AM 51 40 100 83 30.14" 0 0.00 0
Muleshoe 2SSW  07:50 AM 36 35 99% W89 10 mph 213° @ 1210 AM 47 33 99 86 30.15" 0 0.00 0
Northfield 1S  07:50 AM 49 43 79% SE34 13 mph 178° @ 0135 AM 57 49 80 58 30.10" 0 0.00 1
O'Donnell 1N  07:50 AM 46 44 95% SW45 8 mph 177° @ 0215 AM 56 46 95 68 30.12" 0 0.00 0
Odell 4ENE  07:50 AM 52 43 73% E56 16 mph 157° @ 0359 AM 60 52 71 46 30.12" 0 0.00 2
Olton 6S  07:50 AM 44 42 95% W911 11 mph 206° @ 0455 AM 47 41 94 84 30.13" 0 0.00 0
Paducah 10SW  07:50 AM 49 43 81% S24 10 mph 191° @ 0640 AM 53 48 82 60 30.10" 0 0.00 1
Palo Duro Canyon State Park  07:50 AM 47 43 87% NW912 19 mph 217° @ 0320 AM 54 46 91 62 30.15" 0 0.00 0
Pampa 2E  07:50 AM 45 41 85% N34 18 mph 177° @ 0155 AM 54 45 84 54 30.15" 0 0.00 1
Plains 3N  07:50 AM 46 45 97% W89 10 mph 226° @ 0640 AM 52 45 97 84 30.13" 0 0.00 0
Plainview 1S  07:50 AM 45 43 95% W45 11 mph 169° @ 1255 AM 53 42 96 72 30.12" 0 0.00 0
Post 1NE  07:50 AM 53 50 92% SW34 5 mph 24° @ 0220 AM 57 49 94 65 30.10" 0 0.00 0
Ralls 1SE  07:50 AM 50 48 94% SW68 10 mph 176° @ 1230 AM 52 48 94 67 30.12" 0 0.00 0
Reese Center  07:50 AM 44 43 95% NW67 10 mph 164° @ 0220 AM 51 44 96 79 30.13" 0 0.00 0
Roaring Springs 3N  07:50 AM 51 48 91% W67 12 mph 214° @ 0330 AM 52 49 91 70 30.10" 0 0.00 1
San Angelo 7NW  07:50 AM 55 52 92% E34 8 mph 138° @ 1205 AM 63 54 92 72 30.12" 0 0.00 2
Seminole 2NNE  07:50 AM 49 47 92% W79 10 mph 263° @ 0740 AM 55 48 93 78 30.13" 0 0.00 0
Seymour 3NW  07:50 AM 54 46 73% S56 10 mph 162° @ 0500 AM 57 54 73 56 30.10" 0 0.00 2
Silverton 7ESE  07:50 AM 48 44 87% W911 14 mph 168° @ 1205 AM 55 46 87 58 30.12" 0 0.00 1
Slaton 2NE  07:50 AM 48 46 95% SW34 11 mph 231° @ 0535 AM 53 48 95 74 30.12" 0 0.00 1
Snyder 3E  07:50 AM 53 52 97% S78 12 mph 147° @ 0120 AM 58 54 97 75 30.11" 0 0.00 1
Spur 1W  07:50 AM 46 42 87% NW01 7 mph 348° @ 1235 AM 48 46 88 80 30.09" 0 0.00 1
St. Lawrence 5SW  07:50 AM 52 51 100% SE77 12 mph 144° @ 1210 AM 62 51 100 73 30.12" 0 0.00 1
Sterling City 4WSW  07:51 AM 53 52 97% NE55 9 mph 129° @ 1201 AM 64 49 97 68 30.13" 0 0.00 1
Sundown 8WSW  07:50 AM 42 41 97% W910 12 mph 188° @ 0150 AM 52 42 97 82 30.13" 0 0.00 0
Sweetwater 11SW   07:50 AM 57 54 92% SE1112 15 mph 143° @ 1226 AM 62 57 92 64 30.13" 0 0.00 2
Tahoka 3NNE  07:49 AM 49 48 94% SW67 10 mph 221° @ 0610 AM 53 49 95 72 30.11" 0 0.00 0
Tarzan 2WNW  07:50 AM 49 48 97% W22 8 mph 180° @ 0252 AM 59 49 97 79 30.13" 0 0.00 1
Tatum NM 2SW  07:50 AM 48 45 91% W911 14 mph 249° @ 0710 AM 54 46 94 84 30.16" 0 0.00 0
Tulia 2ENE  07:50 AM 45 43 96% W67 13 mph 231° @ 0525 AM 49 45 96 80 30.12" 0 0.00 0
Turkey 2WSW  07:50 AM 50 42 77% NW78 13 mph 201° @ 0125 AM 54 50 76 66 30.11" 0 0.00 1
Umbarger 3NNE  07:50 AM 41 39 93% N89 17 mph 196° @ 0212 AM 51 40 94 73 30.15" 0 0.00 0
Wall 1E  07:50 AM 54 50 89% E00 14 mph 146° @ 1230 AM 65 53 90 75 30.12" 0 0.00 2
White River Lake 6NW  07:50 AM 54 50 87% SW56 7 mph 227° @ 0730 AM 60 53 86 50 30.10" 0 0.00 1
Wolfforth 6SSW  07:50 AM 48 47 99% W56 12 mph 154° @ 0200 AM 53 47 99 79 30.12" 0 0.00 0

West Texas Mesonet Home   Site Map/Menu  NWS Lubbock Soil Data  Daily Summary Page  24hr Precip  72hr Precip  Google Plot